Time;durP1;ratioP1;P1;durP2;ratioP2;P2;SDS_P1;SDS_P2;PMS_P1;PMS_P2;Temp;Humidity;BMP_temperature;BMP_pressure;BME280_temperature;BME280_humidity;BME280_pressure;Samples;Min_cycle;Max_cycle;Signal;HPM_P1;HPM_P2
2022/11/15 00:00:08;;;;;;;0.60;0.60;;;7.30;99.90;;;;;;5153883;27;20208;-75
2022/11/15 00:02:33;;;;;;;0.60;0.60;;;7.30;99.90;;;;;;5153937;27;20277;-75
2022/11/15 00:04:59;;;;;;;0.60;0.60;;;7.30;99.90;;;;;;5154179;27;20198;-75
2022/11/15 00:07:25;;;;;;;0.52;0.52;;;7.20;99.90;;;;;;5154077;27;20186;-74
2022/11/15 00:09:50;;;;;;;0.60;0.60;;;7.10;99.90;;;;;;5154110;27;20749;-75
2022/11/15 00:12:16;;;;;;;0.65;0.65;;;7.10;99.90;;;;;;5154198;27;20194;-74
2022/11/15 00:14:42;;;;;;;0.50;0.50;;;7.10;99.90;;;;;;5135385;27;20198;-75
2022/11/15 00:17:07;;;;;;;0.50;0.50;;;7.10;99.90;;;;;;5154379;27;20214;-75
2022/11/15 00:19:33;;;;;;;0.65;0.65;;;7.10;99.90;;;;;;5138731;27;20243;-74
2022/11/15 00:21:58;;;;;;;0.70;0.70;;;7.20;99.90;;;;;;5157962;27;20209;-74
2022/11/15 00:24:24;;;;;;;0.60;0.60;;;7.10;99.90;;;;;;5157795;27;20182;-74
2022/11/15 00:26:50;;;;;;;0.60;0.60;;;7.10;99.90;;;;;;5157858;27;20238;-74
2022/11/15 00:29:15;;;;;;;0.60;0.60;;;7.10;99.90;;;;;;5157744;27;20198;-75
2022/11/15 00:31:41;;;;;;;0.70;0.70;;;7.10;99.90;;;;;;5157595;27;20190;-74
2022/11/15 00:34:07;;;;;;;0.60;0.60;;;7.10;99.90;;;;;;5157440;27;20194;-74
2022/11/15 00:36:34;;;;;;;0.60;0.60;;;7.10;99.90;;;;;;5157371;27;20213;-74
2022/11/15 00:39:00;;;;;;;0.57;0.57;;;7.10;99.90;;;;;;5138999;27;20286;-74
2022/11/15 00:41:26;;;;;;;0.80;0.80;;;7.10;99.90;;;;;;5138618;27;20597;-75
2022/11/15 00:43:51;;;;;;;0.65;0.65;;;7.10;99.90;;;;;;5138645;27;20271;-74
2022/11/15 00:46:17;;;;;;;0.60;0.60;;;7.10;99.90;;;;;;5138986;27;20189;-74
2022/11/15 00:48:42;;;;;;;0.60;0.60;;;7.00;99.90;;;;;;5157184;27;20186;-74
2022/11/15 00:51:08;;;;;;;0.60;0.60;;;7.00;99.90;;;;;;5157685;27;20273;-75
2022/11/15 00:53:34;;;;;;;0.57;0.57;;;7.00;99.90;;;;;;5138606;27;20194;-75
2022/11/15 00:56:00;;;;;;;0.70;0.70;;;7.00;99.90;;;;;;5156977;27;20178;-74
2022/11/15 00:58:25;;;;;;;0.60;0.60;;;7.00;99.90;;;;;;5157134;27;20243;-74
2022/11/15 01:00:51;;;;;;;0.60;0.60;;;7.00;99.90;;;;;;5138646;27;20610;-74
2022/11/15 01:03:17;;;;;;;0.70;0.70;;;6.90;99.90;;;;;;5157266;27;20623;-75
2022/11/15 01:05:42;;;;;;;0.70;0.70;;;6.90;99.90;;;;;;5156088;27;20194;-74
2022/11/15 01:08:15;;;;;;;0.60;0.60;;;6.90;99.90;;;;;;5138557;27;20190;-75
2022/11/15 01:10:41;;;;;;;0.60;0.60;;;6.80;99.90;;;;;;5156769;27;20733;-75
2022/11/15 01:13:07;;;;;;;0.60;0.60;;;6.80;99.90;;;;;;5157068;27;20197;-74
2022/11/15 01:15:33;;;;;;;0.60;0.60;;;6.80;99.90;;;;;;5156644;27;20553;-75
2022/11/15 01:17:59;;;;;;;0.65;0.65;;;6.80;99.90;;;;;;5156817;27;20565;-74
2022/11/15 01:20:24;;;;;;;0.57;0.57;;;6.70;99.90;;;;;;5156377;27;20619;-74
2022/11/15 01:22:50;;;;;;;0.63;0.63;;;6.80;99.90;;;;;;5156844;27;20245;-74
2022/11/15 01:25:16;;;;;;;0.60;0.60;;;6.70;99.90;;;;;;5156799;27;20190;-75
2022/11/15 01:27:41;;;;;;;0.60;0.60;;;6.70;99.90;;;;;;5156359;27;20179;-75
2022/11/15 01:30:08;;;;;;;0.70;0.70;;;6.60;99.90;;;;;;5156369;27;20190;-74
2022/11/15 01:32:34;;;;;;;0.50;0.50;;;6.60;99.90;;;;;;5137950;27;20205;-74
2022/11/15 01:34:59;;;;;;;0.70;0.70;;;6.60;99.90;;;;;;5137974;27;20198;-74
2022/11/15 01:37:25;;;;;;;0.52;0.52;;;6.60;99.90;;;;;;5156120;27;20637;-74
2022/11/15 01:39:50;;;;;;;0.60;0.60;;;6.60;99.90;;;;;;5155114;27;20206;-74
2022/11/15 01:42:17;;;;;;;0.68;0.68;;;6.50;99.90;;;;;;5156439;27;20221;-74
2022/11/15 01:44:49;;;;;;;0.50;0.50;;;6.50;99.90;;;;;;5156103;27;20675;-75
2022/11/15 01:47:23;;;;;;;0.60;0.60;;;6.50;99.90;;;;;;5156337;27;20269;-75
2022/11/15 01:50:09;;;;;;;0.70;0.70;;;6.50;99.90;;;;;;5136716;27;20202;-74
2022/11/15 01:52:36;;;;;;;0.50;0.50;;;6.40;99.90;;;;;;5155711;27;20255;-75
2022/11/15 01:55:28;;;;;;;0.50;0.50;;;6.50;99.90;;;;;;5156269;27;20579;-74
2022/11/15 01:57:58;;;;;;;0.60;0.60;;;6.40;99.90;;;;;;5155511;27;20607;-75
2022/11/15 02:00:23;;;;;;;0.50;0.50;;;6.30;99.90;;;;;;5137066;27;20680;-75
2022/11/15 02:02:50;;;;;;;0.60;0.60;;;6.30;99.90;;;;;;5155971;27;20217;-75
2022/11/15 02:05:15;;;;;;;0.60;0.60;;;6.30;99.90;;;;;;5136462;27;20190;-75
2022/11/15 02:07:41;;;;;;;0.50;0.50;;;6.20;99.90;;;;;;5155646;27;20190;-75
2022/11/15 02:10:12;;;;;;;0.50;0.50;;;6.20;99.90;;;;;;5155758;27;20560;-75
2022/11/15 02:12:37;;;;;;;0.70;0.70;;;6.20;99.90;;;;;;5137079;27;20201;-75
2022/11/15 02:15:05;;;;;;;0.60;0.60;;;6.30;99.90;;;;;;5155787;27;20187;-75
2022/11/15 02:17:58;;;;;;;0.60;0.60;;;6.30;99.90;;;;;;5136978;27;20194;-75
2022/11/15 02:20:46;;;;;;;0.60;0.60;;;6.30;99.90;;;;;;5155213;27;20635;-75
2022/11/15 02:23:24;;;;;;;0.60;0.60;;;6.30;99.90;;;;;;5155555;27;20273;-75
2022/11/15 02:25:55;;;;;;;0.60;0.60;;;6.20;99.90;;;;;;5136919;27;20242;-75
2022/11/15 02:28:40;;;;;;;0.50;0.50;;;6.20;99.90;;;;;;5155389;27;20720;-75
2022/11/15 02:31:40;;;;;;;0.57;0.57;;;6.10;99.90;;;;;;5136916;27;20683;-75
2022/11/15 02:34:28;;;;;;;0.70;0.70;;;6.00;99.90;;;;;;5155339;27;20259;-75
2022/11/15 02:37:22;;;;;;;0.60;0.60;;;6.00;99.90;;;;;;5155083;27;20194;-75
2022/11/15 02:40:13;;;;;;;0.50;0.50;;;5.90;99.90;;;;;;5122220;27;20241;-74
2022/11/15 02:45:48;;;;;;;1.23;1.13;;;5.80;99.90;;;;;;5154800;27;20233;-74
2022/11/15 02:48:15;;;;;;;0.60;0.60;;;5.80;99.90;;;;;;5136100;27;20186;-75
2022/11/15 02:50:42;;;;;;;0.50;0.50;;;5.80;99.90;;;;;;5155117;27;20202;-75
2022/11/15 02:53:08;;;;;;;0.70;0.70;;;5.70;99.90;;;;;;5155134;27;20538;-75
2022/11/15 02:55:43;;;;;;;0.70;0.70;;;5.60;99.90;;;;;;5154883;27;20186;-75
2022/11/15 02:58:23;;;;;;;0.70;0.70;;;5.60;99.90;;;;;;5155037;27;20194;-75
2022/11/15 03:01:04;;;;;;;0.60;0.60;;;5.50;99.90;;;;;;5138417;27;20214;-75
2022/11/15 03:03:47;;;;;;;0.60;0.60;;;5.50;99.90;;;;;;5153527;27;20660;-75
2022/11/15 03:06:40;;;;;;;0.68;0.68;;;5.50;99.90;;;;;;5153592;27;20186;-74
2022/11/15 03:09:33;;;;;;;0.52;0.52;;;5.50;99.90;;;;;;5132887;27;20610;-75
2022/11/15 03:12:06;;;;;;;0.60;0.60;;;5.50;99.90;;;;;;5123857;27;20600;-75
2022/11/15 03:14:36;;;;;;;0.50;0.50;;;5.40;99.90;;;;;;5133980;27;20191;-74
2022/11/15 03:17:15;;;;;;;0.57;0.57;;;5.40;99.90;;;;;;5133941;27;20589;-75
2022/11/15 03:19:49;;;;;;;0.60;0.60;;;5.40;99.90;;;;;;5133416;27;20309;-74
2022/11/15 03:22:20;;;;;;;0.60;0.60;;;5.40;99.90;;;;;;5133946;27;20657;-74
2022/11/15 03:24:50;;;;;;;0.50;0.50;;;5.40;99.90;;;;;;5133907;27;20587;-75
2022/11/15 03:27:20;;;;;;;0.60;0.60;;;5.30;99.90;;;;;;5151273;27;20242;-75
2022/11/15 03:30:00;;;;;;;0.65;0.65;;;5.30;99.90;;;;;;5154031;27;20202;-75
2022/11/15 03:32:29;;;;;;;0.70;0.70;;;5.20;99.90;;;;;;5154403;27;20197;-75
2022/11/15 03:35:14;;;;;;;0.70;0.70;;;5.20;99.90;;;;;;5154467;27;20194;-75
2022/11/15 03:38:21;;;;;;;0.70;0.70;;;5.20;99.90;;;;;;5154159;27;20280;-75
2022/11/15 03:40:56;;;;;;;0.60;0.60;;;5.10;99.90;;;;;;5144612;27;20214;-75
2022/11/15 03:43:44;;;;;;;0.45;0.45;;;5.20;99.90;;;;;;5152739;27;20197;-75
2022/11/15 03:46:14;;;;;;;0.57;0.57;;;5.10;99.90;;;;;;5135068;27;20194;-75
2022/11/15 03:48:46;;;;;;;0.60;0.60;;;5.10;99.90;;;;;;5154199;27;20237;-74
2022/11/15 03:51:13;;;;;;;0.70;0.70;;;5.10;99.90;;;;;;5136495;27;20544;-74
2022/11/15 03:53:40;;;;;;;0.60;0.60;;;5.10;99.90;;;;;;5158385;27;20724;-74
2022/11/15 03:56:06;;;;;;;0.70;0.70;;;5.10;99.90;;;;;;5158559;27;20186;-74
2022/11/15 03:58:31;;;;;;;0.70;0.70;;;5.00;99.90;;;;;;5158258;27;20317;-75
2022/11/15 04:00:59;;;;;;;0.60;0.60;;;5.00;99.90;;;;;;5150609;27;20190;-74
2022/11/15 04:03:25;;;;;;;0.50;0.50;;;5.00;99.90;;;;;;5154541;27;20221;-74
2022/11/15 04:05:50;;;;;;;0.45;0.45;;;5.00;99.90;;;;;;5139787;27;20194;-74
2022/11/15 04:08:16;;;;;;;0.70;0.70;;;5.00;99.90;;;;;;5158642;27;20591;-74
2022/11/15 04:10:42;;;;;;;0.70;0.70;;;5.00;99.90;;;;;;5158102;27;20637;-74
2022/11/15 04:13:08;;;;;;;0.52;0.52;;;4.90;99.90;;;;;;5158210;27;20194;-74
2022/11/15 04:15:34;;;;;;;0.40;0.40;;;4.90;99.90;;;;;;5157940;27;20186;-74
2022/11/15 04:18:00;;;;;;;0.70;0.70;;;4.90;99.90;;;;;;5158008;27;20190;-74
2022/11/15 04:26:12;;;;;;;0.60;0.60;;;4.80;99.90;;;;;;5158179;27;20201;-74
2022/11/15 04:29:33;;;;;;;0.60;0.60;;;4.80;99.90;;;;;;5156583;27;20191;-74
2022/11/15 04:31:24;;;;;;;3.78;3.03;;;4.70;99.90;;;;;;5157331;27;20213;-74
2022/11/15 04:33:49;;;;;;;1.42;1.30;;;4.70;99.90;;;;;;5157740;27;20190;-74
2022/11/15 04:38:59;;;;;;;2.80;2.58;;;4.60;99.90;;;;;;5157727;27;20208;-75
2022/11/15 04:41:25;;;;;;;1.38;1.27;;;4.50;99.90;;;;;;5157144;27;20195;-75
2022/11/15 04:43:51;;;;;;;2.92;2.63;;;4.40;99.90;;;;;;5157307;27;20218;-74
2022/11/15 04:46:16;;;;;;;2.45;2.25;;;4.40;99.90;;;;;;5136872;27;20243;-74
2022/11/15 04:48:42;;;;;;;0.80;0.80;;;4.30;99.90;;;;;;5136625;27;20561;-75
2022/11/15 04:51:08;;;;;;;3.28;3.03;;;4.30;99.90;;;;;;5118365;27;20202;-75
2022/11/15 04:53:34;;;;;;;3.50;2.47;;;4.10;99.90;;;;;;5136526;27;20255;-75
2022/11/15 04:55:59;;;;;;;2.42;1.80;;;4.10;99.90;;;;;;5118167;27;20556;-74
2022/11/15 04:58:25;;;;;;;1.67;1.38;;;4.00;99.90;;;;;;5136395;27;20193;-74
2022/11/15 05:00:51;;;;;;;1.25;1.15;;;3.90;99.90;;;;;;5153138;27;20202;-74
2022/11/15 05:06:01;;;;;;;0.73;0.73;;;3.80;99.90;;;;;;5157138;27;20193;-74
2022/11/15 05:08:26;;;;;;;0.90;0.90;;;3.80;99.90;;;;;;5138349;27;20565;-74
2022/11/15 05:10:52;;;;;;;0.68;0.68;;;3.80;99.90;;;;;;5138422;27;20202;-74
2022/11/15 05:13:18;;;;;;;0.60;0.60;;;3.80;99.90;;;;;;5156998;27;20194;-74
2022/11/15 05:15:43;;;;;;;0.82;0.82;;;3.70;99.90;;;;;;5138313;27;20209;-74
2022/11/15 05:19:51;;;;;;;0.60;0.60;;;3.70;99.90;;;;;;5111396;27;20614;-79
2022/11/15 05:22:18;;;;;;;0.60;0.60;;;3.70;99.90;;;;;;5110658;28;20199;-79
2022/11/15 05:24:44;;;;;;;0.50;0.50;;;3.80;99.90;;;;;;5093716;28;20195;-79
2022/11/15 05:27:09;;;;;;;0.80;0.80;;;3.90;99.90;;;;;;5094286;28;20214;-80
2022/11/15 05:29:35;;;;;;;0.52;0.52;;;3.90;99.90;;;;;;5111759;28;20240;-78
2022/11/15 05:32:03;;;;;;;1.80;1.33;;;3.90;99.90;;;;;;5093643;28;20620;-81
2022/11/15 05:34:29;;;;;;;0.68;0.68;;;4.00;99.90;;;;;;5111306;28;20191;-78
2022/11/15 05:36:58;;;;;;;0.68;0.68;;;4.00;99.90;;;;;;5093220;28;20317;-80
2022/11/15 05:39:27;;;;;;;0.60;0.60;;;4.00;99.90;;;;;;5111299;28;20207;-80
2022/11/15 05:41:59;;;;;;;0.50;0.50;;;4.00;99.90;;;;;;5110291;28;20196;-80
2022/11/15 05:44:28;;;;;;;0.57;0.57;;;4.00;99.90;;;;;;5089657;28;20192;-80
2022/11/15 05:46:56;;;;;;;0.60;0.60;;;4.00;99.90;;;;;;5073390;28;20694;-80
2022/11/15 05:49:27;;;;;;;0.60;0.60;;;4.10;99.90;;;;;;5090358;28;20194;-80
2022/11/15 05:51:57;;;;;;;0.80;0.80;;;4.10;99.90;;;;;;5090702;28;20193;-81
2022/11/15 05:54:26;;;;;;;0.70;0.70;;;4.20;99.90;;;;;;5072123;28;20693;-80
2022/11/15 05:56:53;;;;;;;0.50;0.50;;;4.20;99.90;;;;;;5078105;28;20196;-80
2022/11/15 05:59:22;;;;;;;0.55;0.55;;;4.20;99.90;;;;;;5072549;28;20220;-81
2022/11/15 06:01:48;;;;;;;0.50;0.50;;;4.10;99.90;;;;;;5072483;28;20254;-81
2022/11/15 06:04:14;;;;;;;0.60;0.60;;;4.20;99.90;;;;;;5072279;28;20192;-81
2022/11/15 06:06:42;;;;;;;0.50;0.50;;;4.10;99.90;;;;;;5089820;28;20687;-80
2022/11/15 06:09:08;;;;;;;0.50;0.50;;;4.20;99.90;;;;;;5090285;28;20200;-80
2022/11/15 06:11:33;;;;;;;0.50;0.50;;;4.30;99.90;;;;;;5071735;28;20249;-80
2022/11/15 06:13:59;;;;;;;0.50;0.50;;;4.30;99.90;;;;;;5090282;28;20203;-78
2022/11/15 06:16:28;;;;;;;0.70;0.70;;;4.30;99.90;;;;;;5072522;28;20196;-81
2022/11/15 06:18:53;;;;;;;0.70;0.70;;;4.30;99.90;;;;;;5071915;28;20758;-80
2022/11/15 06:21:19;;;;;;;0.60;0.60;;;4.30;99.90;;;;;;5072384;28;20219;-81
2022/11/15 06:23:45;;;;;;;0.63;0.63;;;4.30;99.90;;;;;;5072103;28;20229;-78
2022/11/15 06:26:10;;;;;;;0.70;0.70;;;4.30;99.90;;;;;;5089025;28;20702;-79
2022/11/15 06:28:36;;;;;;;0.60;0.60;;;4.30;99.90;;;;;;5072482;28;20250;-81
2022/11/15 06:31:07;;;;;;;0.57;0.57;;;4.30;99.90;;;;;;5058470;28;20197;-80
2022/11/15 06:33:33;;;;;;;0.60;0.60;;;4.40;99.90;;;;;;5083982;28;20299;-81
2022/11/15 06:36:16;;;;;;;0.60;0.60;;;4.40;99.90;;;;;;5096523;28;20224;-79
2022/11/15 06:38:41;;;;;;;0.50;0.50;;;4.40;99.90;;;;;;5096365;28;20614;-80
2022/11/15 06:41:10;;;;;;;0.57;0.57;;;4.40;99.90;;;;;;5078677;28;20242;-80
2022/11/15 06:43:36;;;;;;;0.60;0.60;;;4.40;99.90;;;;;;5078581;28;20564;-80
2022/11/15 06:46:03;;;;;;;0.70;0.70;;;4.40;99.90;;;;;;5078661;28;20245;-80
2022/11/15 06:48:30;;;;;;;0.60;0.60;;;4.50;99.90;;;;;;5078213;28;20681;-80
2022/11/15 06:50:59;;;;;;;0.60;0.60;;;4.50;99.90;;;;;;5078611;28;20211;-79
2022/11/15 06:53:29;;;;;;;0.50;0.50;;;4.50;99.90;;;;;;5096032;28;20199;-80
2022/11/15 06:56:13;;;;;;;;;;;;;;;;;;;;;
2022/11/15 06:58:42;;;;;;;0.80;0.80;;;4.50;99.90;;;;;;5096266;28;20204;-81
2022/11/15 07:01:11;;;;;;;0.60;0.60;;;4.50;99.90;;;;;;5094708;28;20189;-80
2022/11/15 07:03:42;;;;;;;0.50;0.50;;;4.50;99.90;;;;;;5078018;28;20188;-80
2022/11/15 07:06:09;;;;;;;0.57;0.57;;;4.60;99.90;;;;;;5077953;28;20199;-79
2022/11/15 07:08:35;;;;;;;0.55;0.55;;;4.60;99.90;;;;;;5096155;28;20231;-80
2022/11/15 07:11:04;;;;;;;0.70;0.70;;;4.60;99.90;;;;;;5077879;28;20241;-80
2022/11/15 07:13:35;;;;;;;0.60;0.60;;;4.60;99.90;;;;;;5061608;28;20215;-80
2022/11/15 07:16:11;;;;;;;0.50;0.50;;;4.60;99.90;;;;;;5077613;28;20571;-80
2022/11/15 07:18:38;;;;;;;0.68;0.68;;;4.60;99.90;;;;;;5095697;28;20743;-81
2022/11/15 07:21:07;;;;;;;0.60;0.60;;;4.60;99.90;;;;;;5096555;28;20196;-80
2022/11/15 07:23:33;;;;;;;0.70;0.70;;;4.70;99.90;;;;;;5077359;28;20219;-80
2022/11/15 07:26:02;;;;;;;0.55;0.55;;;4.70;99.90;;;;;;5077588;28;20199;-79
2022/11/15 07:28:30;;;;;;;0.60;0.60;;;4.70;99.90;;;;;;5078066;28;20677;-81
2022/11/15 07:30:56;;;;;;;0.68;0.68;;;4.70;99.90;;;;;;5079029;28;20655;-80
2022/11/15 07:33:22;;;;;;;0.60;0.60;;;4.70;99.90;;;;;;5075654;28;20203;-80
2022/11/15 07:35:50;;;;;;;0.60;0.60;;;4.80;99.90;;;;;;5074777;28;20196;-80
2022/11/15 07:38:20;;;;;;;0.68;0.68;;;4.70;99.90;;;;;;5075345;28;20236;-79
2022/11/15 07:40:46;;;;;;;0.63;0.63;;;4.80;99.90;;;;;;5057000;28;20193;-79
2022/11/15 07:43:15;;;;;;;0.60;0.60;;;4.80;99.90;;;;;;5057026;28;20201;-80
2022/11/15 07:45:43;;;;;;;0.70;0.70;;;4.80;99.90;;;;;;5074476;28;20562;-80
2022/11/15 07:48:08;;;;;;;0.60;0.60;;;4.80;99.90;;;;;;5065130;28;20690;-79
2022/11/15 07:50:36;;;;;;;1.75;1.25;;;4.80;99.90;;;;;;5076818;28;20253;-80
2022/11/15 07:53:02;;;;;;;0.90;0.90;;;4.80;99.90;;;;;;5093789;28;20192;-80
2022/11/15 07:55:29;;;;;;;0.60;0.60;;;4.80;99.90;;;;;;5094068;28;20204;-81
2022/11/15 07:58:06;;;;;;;0.57;0.57;;;4.80;99.90;;;;;;5076691;28;20212;-80
2022/11/15 08:00:33;;;;;;;0.60;0.60;;;4.80;99.90;;;;;;5076850;28;20196;-80
2022/11/15 08:03:10;;;;;;;0.50;0.50;;;4.90;99.90;;;;;;5095339;28;20199;-79
2022/11/15 08:05:37;;;;;;;0.63;0.63;;;4.90;99.90;;;;;;5077037;28;20253;-80
2022/11/15 08:08:03;;;;;;;0.60;0.60;;;4.90;99.90;;;;;;5095065;28;20535;-80
2022/11/15 08:10:29;;;;;;;0.50;0.50;;;5.00;99.90;;;;;;5077289;28;20203;-80
2022/11/15 08:13:03;;;;;;;0.60;0.60;;;5.00;99.90;;;;;;5077383;28;20206;-80
2022/11/15 08:15:30;;;;;;;0.47;0.47;;;5.00;99.90;;;;;;5077247;28;20295;-80
2022/11/15 08:18:05;;;;;;;0.60;0.60;;;4.90;99.90;;;;;;5076804;28;20243;-80
2022/11/15 08:20:32;;;;;;;0.50;0.50;;;4.90;99.90;;;;;;5095446;28;20192;-80
2022/11/15 08:22:59;;;;;;;0.50;0.50;;;5.00;99.90;;;;;;5077703;28;20198;-80
2022/11/15 08:25:27;;;;;;;0.50;0.50;;;5.00;99.90;;;;;;5077011;28;20230;-80
2022/11/15 08:27:57;;;;;;;0.60;0.60;;;5.00;99.90;;;;;;5077231;28;20245;-80
2022/11/15 08:30:23;;;;;;;0.40;0.40;;;5.00;99.90;;;;;;5095386;28;20192;-80
2022/11/15 08:32:50;;;;;;;1.20;1.10;;;5.00;99.90;;;;;;5077306;28;20207;-80
2022/11/15 08:35:20;;;;;;;0.60;0.60;;;5.10;99.90;;;;;;5095734;28;20241;-80
2022/11/15 08:37:46;;;;;;;0.52;0.52;;;5.10;99.90;;;;;;5076787;28;20231;-80
2022/11/15 08:40:13;;;;;;;0.50;0.50;;;5.10;99.90;;;;;;5076736;28;20196;-79
2022/11/15 08:42:39;;;;;;;0.60;0.60;;;5.10;99.90;;;;;;5094496;28;20192;-80
2022/11/15 08:45:06;;;;;;;0.50;0.50;;;5.10;99.90;;;;;;5066197;28;20192;-80
2022/11/15 08:47:32;;;;;;;0.60;0.60;;;5.10;99.90;;;;;;5056255;28;20221;-80
2022/11/15 08:49:58;;;;;;;0.52;0.52;;;5.10;99.90;;;;;;5074264;28;20242;-79
2022/11/15 08:52:27;;;;;;;0.60;0.60;;;5.10;99.90;;;;;;5055678;28;20255;-80
2022/11/15 08:54:55;;;;;;;0.93;0.93;;;5.20;99.90;;;;;;5055944;28;20200;-80
2022/11/15 08:57:21;;;;;;;0.60;0.60;;;5.20;99.90;;;;;;5055572;28;20200;-80
2022/11/15 08:59:47;;;;;;;0.60;0.60;;;5.20;99.90;;;;;;5073531;28;20193;-80
2022/11/15 09:02:14;;;;;;;0.60;0.60;;;5.20;99.90;;;;;;5073783;28;20705;-79
2022/11/15 09:04:43;;;;;;;0.60;0.60;;;5.20;99.90;;;;;;5073604;28;20640;-80
2022/11/15 09:07:13;;;;;;;0.60;0.60;;;5.20;99.90;;;;;;5055769;28;20243;-81
2022/11/15 09:09:39;;;;;;;0.60;0.60;;;5.30;99.90;;;;;;5055390;28;20211;-80
2022/11/15 09:12:07;;;;;;;0.60;0.60;;;5.30;99.90;;;;;;5055961;28;20652;-81
2022/11/15 09:14:33;;;;;;;0.60;0.60;;;5.30;99.90;;;;;;5073567;28;20242;-81
2022/11/15 09:16:59;;;;;;;0.68;0.68;;;5.30;99.90;;;;;;5055716;28;20817;-80
2022/11/15 09:19:25;;;;;;;0.47;0.47;;;5.30;99.90;;;;;;5070054;28;20315;-78
2022/11/15 09:21:51;;;;;;;0.60;0.60;;;5.30;99.90;;;;;;5069156;28;20674;-80
2022/11/15 09:24:17;;;;;;;0.57;0.57;;;5.30;99.90;;;;;;5075587;28;20358;-80
2022/11/15 09:26:43;;;;;;;0.50;0.50;;;5.30;99.90;;;;;;5093711;28;20228;-80
2022/11/15 09:29:11;;;;;;;0.60;0.60;;;5.30;99.90;;;;;;5075762;28;20290;-78
2022/11/15 09:31:37;;;;;;;0.60;0.60;;;5.40;99.90;;;;;;5075433;28;20249;-82
2022/11/15 09:34:03;;;;;;;0.50;0.50;;;5.50;99.90;;;;;;5075409;28;20283;-78
2022/11/15 09:36:29;;;;;;;0.50;0.50;;;5.40;99.90;;;;;;5075590;28;20628;-79
2022/11/15 09:38:58;;;;;;;0.60;0.60;;;5.40;99.90;;;;;;5075374;28;20308;-81
2022/11/15 09:41:29;;;;;;;0.70;0.70;;;5.40;99.90;;;;;;5064608;28;20694;-79
2022/11/15 09:44:30;;;;;;;0.60;0.60;;;5.40;99.90;;;;;;5072038;28;20226;-79
2022/11/15 09:47:17;;;;;;;0.60;0.60;;;5.50;99.90;;;;;;5071882;28;20197;-81
2022/11/15 09:49:43;;;;;;;0.70;0.70;;;5.40;99.90;;;;;;5072418;28;20200;-80
2022/11/15 09:52:10;;;;;;;0.95;0.95;;;5.40;99.90;;;;;;5073920;28;20197;-80
2022/11/15 10:02:08;;;;;;;0.70;0.70;;;5.40;99.90;;;;;;5072996;28;20203;-87
2022/11/15 10:05:13;;;;;;;0.52;0.52;;;5.40;99.90;;;;;;5049306;28;20273;-80
2022/11/15 10:08:05;;;;;;;0.60;0.60;;;5.40;99.90;;;;;;5070644;28;20202;-83
2022/11/15 10:11:12;;;;;;;0.60;0.60;;;5.40;99.90;;;;;;5088311;28;20219;-79
2022/11/15 10:13:43;;;;;;;0.55;0.55;;;5.30;99.90;;;;;;5085339;28;20774;-84
2022/11/15 10:16:09;;;;;;;0.50;0.50;;;5.30;99.90;;;;;;5085957;28;20196;-85
2022/11/15 10:18:35;;;;;;;0.50;0.50;;;5.20;99.90;;;;;;5091933;28;20234;-84
2022/11/15 10:21:25;;;;;;;0.60;0.60;;;5.20;99.90;;;;;;5102132;28;20663;-85
2022/11/15 10:23:52;;;;;;;0.65;0.65;;;5.20;99.90;;;;;;5103349;28;20196;-86
2022/11/15 10:26:18;;;;;;;0.50;0.50;;;5.20;99.90;;;;;;5102143;28;20631;-85
2022/11/15 10:28:44;;;;;;;0.50;0.50;;;5.10;99.90;;;;;;5085978;28;20192;-86
2022/11/15 10:31:27;;;;;;;0.50;0.50;;;5.00;99.90;;;;;;5085691;28;20206;-84
2022/11/15 10:34:18;;;;;;;0.52;0.52;;;5.00;99.90;;;;;;5101946;28;20203;-86
2022/11/15 10:37:07;;;;;;;0.60;0.60;;;5.00;99.90;;;;;;5100253;28;20196;-84
2022/11/15 10:39:33;;;;;;;0.40;0.40;;;4.90;99.90;;;;;;4997729;28;20283;-85
2022/11/15 10:42:36;;;;;;;0.60;0.60;;;4.90;99.90;;;;;;5073107;28;20212;-84
2022/11/15 10:45:47;;;;;;;0.50;0.50;;;4.90;99.90;;;;;;5083712;28;20650;-85
2022/11/15 10:49:00;;;;;;;0.55;0.55;;;4.90;99.90;;;;;;5091812;28;20221;-87
2022/11/15 10:51:42;;;;;;;0.40;0.40;;;4.90;99.90;;;;;;5090742;28;20197;-78
2022/11/15 10:54:19;;;;;;;0.55;0.55;;;4.90;99.90;;;;;;5081269;28;20208;-79
2022/11/15 10:56:57;;;;;;;0.57;0.57;;;4.90;99.90;;;;;;5113385;28;20614;-79
2022/11/15 10:59:34;;;;;;;0.63;0.63;;;4.90;99.90;;;;;;5100586;28;20208;-77
2022/11/15 11:02:22;;;;;;;0.60;0.60;;;4.90;99.90;;;;;;5117077;28;20216;-86
2022/11/15 11:08:15;;;;;;;0.68;0.68;;;4.80;99.90;;;;;;5096593;28;20228;-84
2022/11/15 11:11:02;;;;;;;0.60;0.60;;;4.90;99.90;;;;;;5068656;28;20291;-84
2022/11/15 11:13:39;;;;;;;0.60;0.60;;;4.90;99.90;;;;;;5102571;28;20264;-84
2022/11/15 11:16:14;;;;;;;0.52;0.52;;;4.90;99.90;;;;;;5084995;28;20218;-84
2022/11/15 11:19:12;;;;;;;0.90;0.90;;;4.90;99.90;;;;;;5086888;28;20715;-85
2022/11/15 11:21:58;;;;;;;0.52;0.52;;;4.90;99.90;;;;;;5049125;28;20291;-84
2022/11/15 11:24:39;;;;;;;0.63;0.63;;;5.00;99.90;;;;;;5062653;28;20258;-84
2022/11/15 11:27:31;;;;;;;0.68;0.68;;;5.00;99.90;;;;;;5080911;28;20663;-83
2022/11/15 11:30:18;;;;;;;0.50;0.50;;;5.00;99.90;;;;;;5075825;28;20209;-84
2022/11/15 11:33:02;;;;;;;0.60;0.60;;;5.00;99.90;;;;;;5061786;28;20260;-85
2022/11/15 11:35:51;;;;;;;0.60;0.60;;;5.10;99.90;;;;;;5061892;28;20287;-84
2022/11/15 11:38:22;;;;;;;0.60;0.60;;;5.10;99.90;;;;;;5061396;28;20279;-84
2022/11/15 11:41:03;;;;;;;0.60;0.60;;;5.20;99.90;;;;;;5062236;28;20229;-84
2022/11/15 11:43:39;;;;;;;0.60;0.60;;;5.30;99.90;;;;;;5061754;28;20199;-84
2022/11/15 11:46:23;;;;;;;0.60;0.60;;;5.30;99.90;;;;;;5062175;28;20201;-85
2022/11/15 11:49:09;;;;;;;0.55;0.55;;;5.30;99.90;;;;;;5062191;28;20204;-84
2022/11/15 11:52:02;;;;;;;0.50;0.50;;;5.30;99.90;;;;;;5061976;28;20672;-83
2022/11/15 11:54:35;;;;;;;0.55;0.55;;;5.30;99.90;;;;;;5080030;28;20706;-84
2022/11/15 11:57:06;;;;;;;0.40;0.40;;;5.30;99.90;;;;;;5062408;28;20197;-84
2022/11/15 11:59:56;;;;;;;0.43;0.43;;;5.30;99.90;;;;;;5080630;28;20619;-84
2022/11/15 12:02:35;;;;;;;0.52;0.52;;;5.30;99.90;;;;;;5062021;28;20196;-84
2022/11/15 12:05:13;;;;;;;0.50;0.50;;;5.30;99.90;;;;;;5079685;28;20635;-83
2022/11/15 12:07:41;;;;;;;0.80;0.80;;;5.30;99.90;;;;;;5072185;28;20203;-82
2022/11/15 12:10:34;;;;;;;0.45;0.45;;;5.30;99.90;;;;;;5098625;28;20196;-85
2022/11/15 12:13:21;;;;;;;0.60;0.60;;;5.30;99.90;;;;;;5103594;28;20252;-85
2022/11/15 12:16:26;;;;;;;0.50;0.50;;;5.20;99.90;;;;;;5063254;28;20224;-84
2022/11/15 12:18:57;;;;;;;0.50;0.50;;;5.30;99.90;;;;;;5083674;28;20282;-81
2022/11/15 12:21:31;;;;;;;0.43;0.43;;;5.30;99.90;;;;;;5075622;28;20731;-80
2022/11/15 12:24:27;;;;;;;0.57;0.57;;;5.20;99.90;;;;;;5057338;28;20229;-79
2022/11/15 12:27:11;;;;;;;0.55;0.55;;;5.20;99.90;;;;;;5057972;28;20204;-79
2022/11/15 12:29:54;;;;;;;0.43;0.43;;;5.20;99.90;;;;;;5063934;28;20287;-79
2022/11/15 12:32:31;;;;;;;0.55;0.55;;;5.20;99.90;;;;;;5095321;28;20200;-79
2022/11/15 12:34:58;;;;;;;0.60;0.60;;;5.20;99.90;;;;;;5077679;28;20260;-79
2022/11/15 12:37:40;;;;;;;0.50;0.50;;;5.10;99.90;;;;;;5076939;28;20196;-80
2022/11/15 12:40:09;;;;;;;0.60;0.60;;;5.20;99.90;;;;;;5077665;28;20604;-79
2022/11/15 12:42:36;;;;;;;0.60;0.60;;;5.20;99.90;;;;;;5076470;28;20608;-79
2022/11/15 12:45:22;;;;;;;0.60;0.60;;;5.20;99.90;;;;;;5071209;28;20219;-79
2022/11/15 12:47:48;;;;;;;0.70;0.70;;;5.20;99.90;;;;;;5076855;28;20195;-80
2022/11/15 12:50:14;;;;;;;0.55;0.55;;;5.10;99.90;;;;;;5073783;28;20291;-79
2022/11/15 12:53:18;;;;;;;0.70;0.70;;;5.10;99.90;;;;;;5073436;28;20250;-80
2022/11/15 12:56:03;;;;;;;0.70;0.70;;;5.10;99.90;;;;;;5073789;28;20192;-80
2022/11/15 12:58:45;;;;;;;0.70;0.70;;;5.10;99.90;;;;;;5072374;28;20218;-80
2022/11/15 13:01:34;;;;;;;0.50;0.50;;;5.10;99.90;;;;;;5057067;28;20568;-79
2022/11/15 13:04:19;;;;;;;0.43;0.43;;;5.10;99.90;;;;;;5093527;28;20670;-79
2022/11/15 13:07:03;;;;;;;0.60;0.60;;;5.10;99.90;;;;;;5094709;28;20642;-80
2022/11/15 13:09:32;;;;;;;0.60;0.60;;;5.00;99.90;;;;;;5075622;28;20196;-80
2022/11/15 13:12:03;;;;;;;0.63;0.63;;;5.00;99.90;;;;;;5052024;28;20284;-79
2022/11/15 13:14:53;;;;;;;0.60;0.60;;;5.00;99.90;;;;;;5056770;28;20197;-79
2022/11/15 13:17:19;;;;;;;0.60;0.60;;;4.90;99.90;;;;;;5073293;28;20216;-80
2022/11/15 13:19:59;;;;;;;0.60;0.60;;;5.00;99.90;;;;;;5052780;28;20233;-79
2022/11/15 13:25:38;;;;;;;0.63;0.63;;;4.90;99.90;;;;;;5075017;28;20301;-79
2022/11/15 13:28:21;;;;;;;0.68;0.68;;;4.90;99.90;;;;;;5056115;28;20203;-80
2022/11/15 13:30:47;;;;;;;0.60;0.60;;;4.90;99.90;;;;;;5055813;28;20203;-80
2022/11/15 13:33:21;;;;;;;0.70;0.70;;;4.90;99.90;;;;;;5074524;28;20192;-80
2022/11/15 13:35:51;;;;;;;0.50;0.50;;;4.90;99.90;;;;;;5074188;28;20196;-80
2022/11/15 13:38:32;;;;;;;0.70;0.70;;;5.00;99.90;;;;;;5076269;28;20262;-81
2022/11/15 13:40:59;;;;;;;0.60;0.60;;;4.90;99.90;;;;;;5059852;28;20296;-80
2022/11/15 13:43:31;;;;;;;0.60;0.60;;;4.90;99.90;;;;;;5061619;28;20571;-79
2022/11/15 13:46:21;;;;;;;0.70;0.70;;;5.00;99.90;;;;;;5078922;28;20644;-79
2022/11/15 13:48:52;;;;;;;0.60;0.60;;;4.90;99.90;;;;;;5061747;28;20204;-80
2022/11/15 13:51:38;;;;;;;0.57;0.57;;;4.90;99.90;;;;;;5079743;28;20219;-80
2022/11/15 13:54:13;;;;;;;0.60;0.60;;;4.90;99.90;;;;;;5077893;28;20197;-79